sensor_id;sensor_type;location;lat;lon;timestamp;temperature;humidity
62991;DHT22;49084;48.204;16.202;2022-12-13T00:01:56;-2.90;99.90
62991;DHT22;49084;48.204;16.202;2022-12-13T00:04:23;-3.00;99.90
62991;DHT22;49084;48.204;16.202;2022-12-13T00:06:49;-3.60;99.90
62991;DHT22;49084;48.204;16.202;2022-12-13T00:09:17;-2.70;99.90
62991;DHT22;49084;48.204;16.202;2022-12-13T00:11:43;-3.20;99.90
62991;DHT22;49084;48.204;16.202;2022-12-13T00:14:10;-3.20;99.90
62991;DHT22;49084;48.204;16.202;2022-12-13T00:16:38;-2.40;99.90
62991;DHT22;49084;48.204;16.202;2022-12-13T00:19:04;-3.80;99.90
62991;DHT22;49084;48.204;16.202;2022-12-13T00:21:31;-3.90;99.90
62991;DHT22;49084;48.204;16.202;2022-12-13T00:23:58;-4.00;99.90
62991;DHT22;49084;48.204;16.202;2022-12-13T00:26:29;-4.10;99.90
62991;DHT22;49084;48.204;16.202;2022-12-13T00:28:58;-4.20;99.90
62991;DHT22;49084;48.204;16.202;2022-12-13T00:31:25;-4.20;99.90
62991;DHT22;49084;48.204;16.202;2022-12-13T00:33:51;-4.30;99.90
62991;DHT22;49084;48.204;16.202;2022-12-13T00:36:17;-4.40;99.90
62991;DHT22;49084;48.204;16.202;2022-12-13T00:38:43;-2.50;99.90
62991;DHT22;49084;48.204;16.202;2022-12-13T00:41:15;-3.60;99.90
62991;DHT22;49084;48.204;16.202;2022-12-13T00:43:41;-3.20;99.90
62991;DHT22;49084;48.204;16.202;2022-12-13T00:46:13;-3.70;99.90
62991;DHT22;49084;48.204;16.202;2022-12-13T00:48:40;-3.80;99.90
62991;DHT22;49084;48.204;16.202;2022-12-13T00:51:07;-3.30;99.90
62991;DHT22;49084;48.204;16.202;2022-12-13T00:53:33;-5.00;99.90
62991;DHT22;49084;48.204;16.202;2022-12-13T00:55:59;-4.10;99.90
62991;DHT22;49084;48.204;16.202;2022-12-13T00:58:25;-3.70;99.90
62991;DHT22;49084;48.204;16.202;2022-12-13T01:00:50;-4.70;99.90
62991;DHT22;49084;48.204;16.202;2022-12-13T01:03:16;-3.20;99.90
62991;DHT22;49084;48.204;16.202;2022-12-13T01:05:47;-5.40;99.90
62991;DHT22;49084;48.204;16.202;2022-12-13T01:08:14;-5.40;99.90
62991;DHT22;49084;48.204;16.202;2022-12-13T01:10:46;-4.60;99.90
62991;DHT22;49084;48.204;16.202;2022-12-13T01:13:12;-5.20;99.90
62991;DHT22;49084;48.204;16.202;2022-12-13T01:15:42;-5.70;99.90
62991;DHT22;49084;48.204;16.202;2022-12-13T01:18:09;-5.70;99.90
62991;DHT22;49084;48.204;16.202;2022-12-13T01:20:35;-5.80;99.90
62991;DHT22;49084;48.204;16.202;2022-12-13T01:23:00;-3.70;99.90
62991;DHT22;49084;48.204;16.202;2022-12-13T01:25:26;-4.30;99.90
62991;DHT22;49084;48.204;16.202;2022-12-13T01:27:52;-4.60;99.90
62991;DHT22;49084;48.204;16.202;2022-12-13T01:30:17;-5.90;99.90
62991;DHT22;49084;48.204;16.202;2022-12-13T01:32:43;-6.00;99.90
62991;DHT22;49084;48.204;16.202;2022-12-13T01:35:08;-6.00;99.90
62991;DHT22;49084;48.204;16.202;2022-12-13T01:37:34;-6.00;99.90
62991;DHT22;49084;48.204;16.202;2022-12-13T01:40:02;-5.70;99.90
62991;DHT22;49084;48.204;16.202;2022-12-13T01:42:28;-6.00;99.90
62991;DHT22;49084;48.204;16.202;2022-12-13T01:48:02;-6.00;99.90
62991;DHT22;49084;48.204;16.202;2022-12-13T01:50:33;-6.10;99.90
62991;DHT22;49084;48.204;16.202;2022-12-13T01:53:00;-4.20;99.90
62991;DHT22;49084;48.204;16.202;2022-12-13T01:55:29;-6.20;99.90
62991;DHT22;49084;48.204;16.202;2022-12-13T01:57:58;-6.30;99.90
62991;DHT22;49084;48.204;16.202;2022-12-13T02:00:25;-6.30;99.90
62991;DHT22;49084;48.204;16.202;2022-12-13T02:02:53;-4.30;99.90
62991;DHT22;49084;48.204;16.202;2022-12-13T02:05:32;-6.50;99.90
62991;DHT22;49084;48.204;16.202;2022-12-13T02:08:00;-6.50;99.90
62991;DHT22;49084;48.204;16.202;2022-12-13T02:10:26;-6.50;99.90
62991;DHT22;49084;48.204;16.202;2022-12-13T02:12:53;-4.30;99.90
62991;DHT22;49084;48.204;16.202;2022-12-13T02:15:19;-6.50;99.90
62991;DHT22;49084;48.204;16.202;2022-12-13T02:20:42;-6.60;99.90
62991;DHT22;49084;48.204;16.202;2022-12-13T02:31:15;-6.50;99.90
62991;DHT22;49084;48.204;16.202;2022-12-13T02:34:04;-6.50;99.90
62991;DHT22;49084;48.204;16.202;2022-12-13T02:41:49;-6.60;99.90
62991;DHT22;49084;48.204;16.202;2022-12-13T02:44:30;-6.60;99.90
62991;DHT22;49084;48.204;16.202;2022-12-13T02:47:04;-5.20;99.90
62991;DHT22;49084;48.204;16.202;2022-12-13T02:49:34;-6.70;99.90
62991;DHT22;49084;48.204;16.202;2022-12-13T02:52:02;-6.70;99.90
62991;DHT22;49084;48.204;16.202;2022-12-13T02:54:29;-6.70;99.90
62991;DHT22;49084;48.204;16.202;2022-12-13T02:56:56;-6.80;99.90
62991;DHT22;49084;48.204;16.202;2022-12-13T02:59:27;-6.90;99.90
62991;DHT22;49084;48.204;16.202;2022-12-13T03:02:00;-6.90;99.90
62991;DHT22;49084;48.204;16.202;2022-12-13T03:10:32;-6.90;99.90
62991;DHT22;49084;48.204;16.202;2022-12-13T03:13:13;-6.90;99.90
62991;DHT22;49084;48.204;16.202;2022-12-13T03:16:08;-6.90;99.90
62991;DHT22;49084;48.204;16.202;2022-12-13T03:18:35;-6.90;99.90
62991;DHT22;49084;48.204;16.202;2022-12-13T03:21:05;-4.80;99.90
62991;DHT22;49084;48.204;16.202;2022-12-13T03:23:31;-6.90;99.90
62991;DHT22;49084;48.204;16.202;2022-12-13T03:26:15;-4.50;99.90
62991;DHT22;49084;48.204;16.202;2022-12-13T03:28:41;-6.90;99.90
62991;DHT22;49084;48.204;16.202;2022-12-13T03:31:07;-6.90;99.90
62991;DHT22;49084;48.204;16.202;2022-12-13T03:33:33;-6.80;99.90
62991;DHT22;49084;48.204;16.202;2022-12-13T03:36:00;-6.80;99.90
62991;DHT22;49084;48.204;16.202;2022-12-13T03:38:26;-6.80;99.90
62991;DHT22;49084;48.204;16.202;2022-12-13T03:41:10;-5.80;99.90
62991;DHT22;49084;48.204;16.202;2022-12-13T03:43:37;-6.30;99.90
62991;DHT22;49084;48.204;16.202;2022-12-13T03:46:05;-7.00;99.90
62991;DHT22;49084;48.204;16.202;2022-12-13T03:48:31;-7.10;99.90
62991;DHT22;49084;48.204;16.202;2022-12-13T03:50:56;-7.20;99.90
62991;DHT22;49084;48.204;16.202;2022-12-13T03:53:23;-7.20;99.90
62991;DHT22;49084;48.204;16.202;2022-12-13T03:55:49;-7.20;99.90
62991;DHT22;49084;48.204;16.202;2022-12-13T03:58:14;-7.20;99.90
62991;DHT22;49084;48.204;16.202;2022-12-13T04:00:40;-7.30;99.90
62991;DHT22;49084;48.204;16.202;2022-12-13T04:03:06;-7.30;99.90
62991;DHT22;49084;48.204;16.202;2022-12-13T04:05:32;-7.40;99.90
62991;DHT22;49084;48.204;16.202;2022-12-13T04:07:57;-7.40;99.90
62991;DHT22;49084;48.204;16.202;2022-12-13T04:10:24;-7.40;99.90
62991;DHT22;49084;48.204;16.202;2022-12-13T04:12:50;-6.30;99.90
62991;DHT22;49084;48.204;16.202;2022-12-13T04:15:35;-7.40;99.90
62991;DHT22;49084;48.204;16.202;2022-12-13T04:18:01;-7.30;99.90
62991;DHT22;49084;48.204;16.202;2022-12-13T04:20:26;-7.30;99.90
62991;DHT22;49084;48.204;16.202;2022-12-13T04:22:52;-7.40;99.90
62991;DHT22;49084;48.204;16.202;2022-12-13T04:25:18;-7.40;99.90
62991;DHT22;49084;48.204;16.202;2022-12-13T04:27:44;-7.50;99.90
62991;DHT22;49084;48.204;16.202;2022-12-13T04:30:10;-7.50;99.90
62991;DHT22;49084;48.204;16.202;2022-12-13T04:32:36;-7.50;99.90
62991;DHT22;49084;48.204;16.202;2022-12-13T04:35:02;-7.60;99.90
62991;DHT22;49084;48.204;16.202;2022-12-13T04:37:28;-7.60;99.90
62991;DHT22;49084;48.204;16.202;2022-12-13T04:39:54;-7.70;99.90
62991;DHT22;49084;48.204;16.202;2022-12-13T04:42:19;-7.70;99.90
62991;DHT22;49084;48.204;16.202;2022-12-13T04:44:45;-7.80;99.90
62991;DHT22;49084;48.204;16.202;2022-12-13T04:47:11;-5.80;99.90
62991;DHT22;49084;48.204;16.202;2022-12-13T04:49:36;-7.90;99.90
62991;DHT22;49084;48.204;16.202;2022-12-13T04:52:02;-7.90;99.90
62991;DHT22;49084;48.204;16.202;2022-12-13T04:54:29;-7.90;99.90
62991;DHT22;49084;48.204;16.202;2022-12-13T04:56:57;-6.30;99.90
62991;DHT22;49084;48.204;16.202;2022-12-13T04:59:22;-6.90;99.90
62991;DHT22;49084;48.204;16.202;2022-12-13T05:01:48;-8.00;99.90
62991;DHT22;49084;48.204;16.202;2022-12-13T05:04:13;-8.00;99.90
62991;DHT22;49084;48.204;16.202;2022-12-13T05:06:39;-8.00;99.90
62991;DHT22;49084;48.204;16.202;2022-12-13T05:09:05;-8.00;99.90
62991;DHT22;49084;48.204;16.202;2022-12-13T05:11:32;-8.00;99.90
62991;DHT22;49084;48.204;16.202;2022-12-13T05:13:58;-8.10;99.90
62991;DHT22;49084;48.204;16.202;2022-12-13T05:16:24;-8.10;99.90
62991;DHT22;49084;48.204;16.202;2022-12-13T05:18:50;-6.20;99.90
62991;DHT22;49084;48.204;16.202;2022-12-13T05:21:15;-8.10;99.90
62991;DHT22;49084;48.204;16.202;2022-12-13T05:23:41;-5.90;99.90
62991;DHT22;49084;48.204;16.202;2022-12-13T05:26:07;-8.10;99.90
62991;DHT22;49084;48.204;16.202;2022-12-13T05:28:33;-8.20;99.90
62991;DHT22;49084;48.204;16.202;2022-12-13T05:31:06;-8.20;99.90
62991;DHT22;49084;48.204;16.202;2022-12-13T05:33:32;-8.20;99.90
62991;DHT22;49084;48.204;16.202;2022-12-13T05:35:58;-8.20;99.90
62991;DHT22;49084;48.204;16.202;2022-12-13T05:38:23;-7.90;99.90
62991;DHT22;49084;48.204;16.202;2022-12-13T05:40:49;-8.30;99.90
62991;DHT22;49084;48.204;16.202;2022-12-13T05:43:15;-8.30;99.90
62991;DHT22;49084;48.204;16.202;2022-12-13T05:45:40;-6.90;99.90
62991;DHT22;49084;48.204;16.202;2022-12-13T05:48:06;-8.30;99.90
62991;DHT22;49084;48.204;16.202;2022-12-13T05:50:33;-8.30;99.90
62991;DHT22;49084;48.204;16.202;2022-12-13T05:52:59;-8.30;99.90
62991;DHT22;49084;48.204;16.202;2022-12-13T05:55:25;-8.30;99.90
62991;DHT22;49084;48.204;16.202;2022-12-13T05:57:50;-8.40;99.90
62991;DHT22;49084;48.204;16.202;2022-12-13T06:00:17;-8.40;99.90
62991;DHT22;49084;48.204;16.202;2022-12-13T06:02:43;-8.40;99.90
62991;DHT22;49084;48.204;16.202;2022-12-13T06:05:09;-8.40;99.90
62991;DHT22;49084;48.204;16.202;2022-12-13T06:07:36;-8.40;99.90
62991;DHT22;49084;48.204;16.202;2022-12-13T06:10:04;-8.40;99.90
62991;DHT22;49084;48.204;16.202;2022-12-13T06:12:30;-8.40;99.90
62991;DHT22;49084;48.204;16.202;2022-12-13T06:14:56;-8.40;99.90
62991;DHT22;49084;48.204;16.202;2022-12-13T06:17:21;-8.40;99.90
62991;DHT22;49084;48.204;16.202;2022-12-13T06:19:52;-8.50;99.90
62991;DHT22;49084;48.204;16.202;2022-12-13T06:22:17;-8.40;99.90
62991;DHT22;49084;48.204;16.202;2022-12-13T06:24:43;-8.50;99.90
62991;DHT22;49084;48.204;16.202;2022-12-13T06:27:09;-8.50;99.90
62991;DHT22;49084;48.204;16.202;2022-12-13T06:29:34;-8.50;99.90
62991;DHT22;49084;48.204;16.202;2022-12-13T06:32:01;-8.50;99.90
62991;DHT22;49084;48.204;16.202;2022-12-13T06:34:32;-8.60;99.90
62991;DHT22;49084;48.204;16.202;2022-12-13T06:36:58;-8.60;99.90
62991;DHT22;49084;48.204;16.202;2022-12-13T06:39:23;-8.60;99.90
62991;DHT22;49084;48.204;16.202;2022-12-13T06:41:49;-8.60;99.90
62991;DHT22;49084;48.204;16.202;2022-12-13T06:44:15;-8.60;99.90
62991;DHT22;49084;48.204;16.202;2022-12-13T06:46:40;-8.60;99.90
62991;DHT22;49084;48.204;16.202;2022-12-13T06:49:07;-8.60;99.90
62991;DHT22;49084;48.204;16.202;2022-12-13T06:51:33;-8.50;99.90
62991;DHT22;49084;48.204;16.202;2022-12-13T06:54:00;-8.60;99.90
62991;DHT22;49084;48.204;16.202;2022-12-13T06:56:27;-8.60;99.90
62991;DHT22;49084;48.204;16.202;2022-12-13T06:58:52;-8.50;99.90
62991;DHT22;49084;48.204;16.202;2022-12-13T07:01:18;-8.50;99.90
62991;DHT22;49084;48.204;16.202;2022-12-13T07:03:44;-8.50;99.90
62991;DHT22;49084;48.204;16.202;2022-12-13T07:06:19;-8.50;99.90
62991;DHT22;49084;48.204;16.202;2022-12-13T07:08:48;-8.50;99.90
62991;DHT22;49084;48.204;16.202;2022-12-13T07:11:21;-8.50;99.90
62991;DHT22;49084;48.204;16.202;2022-12-13T07:13:47;-8.50;99.90
62991;DHT22;49084;48.204;16.202;2022-12-13T07:16:13;-8.40;99.90
62991;DHT22;49084;48.204;16.202;2022-12-13T07:18:39;-8.40;99.90
62991;DHT22;49084;48.204;16.202;2022-12-13T07:21:10;-8.40;99.90
62991;DHT22;49084;48.204;16.202;2022-12-13T07:23:37;-8.30;99.90
62991;DHT22;49084;48.204;16.202;2022-12-13T07:26:03;-8.20;99.90
62991;DHT22;49084;48.204;16.202;2022-12-13T07:28:33;-8.20;99.90
62991;DHT22;49084;48.204;16.202;2022-12-13T07:31:00;-8.20;99.90
62991;DHT22;49084;48.204;16.202;2022-12-13T07:33:27;-8.20;99.90
62991;DHT22;49084;48.204;16.202;2022-12-13T07:36:04;-8.10;99.90
62991;DHT22;49084;48.204;16.202;2022-12-13T07:38:35;-8.10;99.90
62991;DHT22;49084;48.204;16.202;2022-12-13T07:41:01;-8.10;99.90
62991;DHT22;49084;48.204;16.202;2022-12-13T07:43:27;-8.10;99.90
62991;DHT22;49084;48.204;16.202;2022-12-13T07:45:57;-8.20;99.90
62991;DHT22;49084;48.204;16.202;2022-12-13T07:48:24;-8.20;99.90
62991;DHT22;49084;48.204;16.202;2022-12-13T07:50:49;-8.10;99.90
62991;DHT22;49084;48.204;16.202;2022-12-13T07:53:15;-8.10;99.90
62991;DHT22;49084;48.204;16.202;2022-12-13T07:55:41;-8.10;99.90
62991;DHT22;49084;48.204;16.202;2022-12-13T07:58:08;-8.10;99.90
62991;DHT22;49084;48.204;16.202;2022-12-13T08:00:36;-6.40;99.90
62991;DHT22;49084;48.204;16.202;2022-12-13T08:03:02;-7.90;99.90
62991;DHT22;49084;48.204;16.202;2022-12-13T08:05:28;-7.90;99.90
62991;DHT22;49084;48.204;16.202;2022-12-13T08:07:53;-7.90;99.90
62991;DHT22;49084;48.204;16.202;2022-12-13T08:10:19;-7.80;99.90
62991;DHT22;49084;48.204;16.202;2022-12-13T08:12:45;-7.70;99.90
62991;DHT22;49084;48.204;16.202;2022-12-13T08:15:11;-7.60;99.90
62991;DHT22;49084;48.204;16.202;2022-12-13T08:17:36;-7.50;99.90
62991;DHT22;49084;48.204;16.202;2022-12-13T08:20:03;-7.30;99.90
62991;DHT22;49084;48.204;16.202;2022-12-13T08:22:29;-7.10;99.90
62991;DHT22;49084;48.204;16.202;2022-12-13T08:24:55;-6.80;99.90
62991;DHT22;49084;48.204;16.202;2022-12-13T08:27:20;-6.30;99.90
62991;DHT22;49084;48.204;16.202;2022-12-13T08:29:46;-3.80;99.90
62991;DHT22;49084;48.204;16.202;2022-12-13T08:32:12;-4.90;99.90
62991;DHT22;49084;48.204;16.202;2022-12-13T08:34:38;-3.50;99.90
62991;DHT22;49084;48.204;16.202;2022-12-13T08:37:04;-3.30;99.90
62991;DHT22;49084;48.204;16.202;2022-12-13T08:39:35;-2.60;99.90
62991;DHT22;49084;48.204;16.202;2022-12-13T08:42:05;-1.90;99.90
62991;DHT22;49084;48.204;16.202;2022-12-13T08:44:32;-1.40;99.90
62991;DHT22;49084;48.204;16.202;2022-12-13T08:46:57;-0.80;99.90
62991;DHT22;49084;48.204;16.202;2022-12-13T08:49:23;-0.20;99.90
62991;DHT22;49084;48.204;16.202;2022-12-13T08:51:48;-0.30;99.90
62991;DHT22;49084;48.204;16.202;2022-12-13T08:54:14;0.00;99.90
62991;DHT22;49084;48.204;16.202;2022-12-13T08:56:40;0.10;99.90
62991;DHT22;49084;48.204;16.202;2022-12-13T08:59:05;0.50;99.90
62991;DHT22;49084;48.204;16.202;2022-12-13T09:01:32;1.00;99.90
62991;DHT22;49084;48.204;16.202;2022-12-13T09:03:57;0.90;99.90
62991;DHT22;49084;48.204;16.202;2022-12-13T09:06:23;1.10;99.90
62991;DHT22;49084;48.204;16.202;2022-12-13T09:08:52;1.60;99.90
62991;DHT22;49084;48.204;16.202;2022-12-13T09:11:18;1.90;99.00
62991;DHT22;49084;48.204;16.202;2022-12-13T09:13:43;2.20;98.10
62991;DHT22;49084;48.204;16.202;2022-12-13T09:16:17;2.20;97.10
62991;DHT22;49084;48.204;16.202;2022-12-13T09:18:49;2.60;96.50
62991;DHT22;49084;48.204;16.202;2022-12-13T09:21:15;2.80;94.80
62991;DHT22;49084;48.204;16.202;2022-12-13T09:23:41;2.80;94.00
62991;DHT22;49084;48.204;16.202;2022-12-13T09:26:09;2.90;93.00
62991;DHT22;49084;48.204;16.202;2022-12-13T09:28:36;3.10;92.50
62991;DHT22;49084;48.204;16.202;2022-12-13T09:31:07;3.20;92.60
62991;DHT22;49084;48.204;16.202;2022-12-13T09:33:33;3.70;90.60
62991;DHT22;49084;48.204;16.202;2022-12-13T09:35:58;4.20;88.00
62991;DHT22;49084;48.204;16.202;2022-12-13T09:38:27;4.40;85.00
62991;DHT22;49084;48.204;16.202;2022-12-13T09:40:53;4.60;84.40
62991;DHT22;49084;48.204;16.202;2022-12-13T09:43:24;4.80;81.90
62991;DHT22;49084;48.204;16.202;2022-12-13T09:45:50;5.00;80.40
62991;DHT22;49084;48.204;16.202;2022-12-13T09:48:18;5.00;79.70
62991;DHT22;49084;48.204;16.202;2022-12-13T09:50:45;4.90;79.90
62991;DHT22;49084;48.204;16.202;2022-12-13T09:53:15;4.60;81.30
62991;DHT22;49084;48.204;16.202;2022-12-13T09:55:44;4.20;82.30
62991;DHT22;49084;48.204;16.202;2022-12-13T09:58:17;4.00;84.90
62991;DHT22;49084;48.204;16.202;2022-12-13T10:00:47;3.70;84.80
62991;DHT22;49084;48.204;16.202;2022-12-13T10:03:15;3.30;86.70
62991;DHT22;49084;48.204;16.202;2022-12-13T10:05:44;3.10;89.10
62991;DHT22;49084;48.204;16.202;2022-12-13T10:08:14;2.80;89.00
62991;DHT22;49084;48.204;16.202;2022-12-13T10:10:41;2.70;91.10
62991;DHT22;49084;48.204;16.202;2022-12-13T10:13:18;2.80;91.40
62991;DHT22;49084;48.204;16.202;2022-12-13T10:15:55;2.70;92.00
62991;DHT22;49084;48.204;16.202;2022-12-13T10:18:33;2.90;91.80
62991;DHT22;49084;48.204;16.202;2022-12-13T10:21:02;3.20;91.40
62991;DHT22;49084;48.204;16.202;2022-12-13T10:23:27;3.30;89.00
62991;DHT22;49084;48.204;16.202;2022-12-13T10:25:53;3.50;86.90
62991;DHT22;49084;48.204;16.202;2022-12-13T10:28:27;3.80;85.80
62991;DHT22;49084;48.204;16.202;2022-12-13T10:30:54;3.60;83.50
62991;DHT22;49084;48.204;16.202;2022-12-13T10:33:32;3.50;86.40
62991;DHT22;49084;48.204;16.202;2022-12-13T10:36:15;3.60;87.20
62991;DHT22;49084;48.204;16.202;2022-12-13T10:38:43;3.40;80.60
62991;DHT22;49084;48.204;16.202;2022-12-13T10:44:20;2.70;82.50
62991;DHT22;49084;48.204;16.202;2022-12-13T10:47:18;3.10;83.50
62991;DHT22;49084;48.204;16.202;2022-12-13T10:49:53;3.70;78.50
62991;DHT22;49084;48.204;16.202;2022-12-13T10:52:40;4.00;75.60
62991;DHT22;49084;48.204;16.202;2022-12-13T10:55:31;4.70;77.30
62991;DHT22;49084;48.204;16.202;2022-12-13T10:58:03;5.40;72.50
62991;DHT22;49084;48.204;16.202;2022-12-13T11:00:42;4.80;71.50
62991;DHT22;49084;48.204;16.202;2022-12-13T11:03:26;5.20;70.50
62991;DHT22;49084;48.204;16.202;2022-12-13T11:08:29;5.80;67.90
62991;DHT22;49084;48.204;16.202;2022-12-13T11:11:00;5.80;68.50
62991;DHT22;49084;48.204;16.202;2022-12-13T11:13:54;6.20;65.40
62991;DHT22;49084;48.204;16.202;2022-12-13T11:18:54;7.80;61.30
62991;DHT22;49084;48.204;16.202;2022-12-13T11:21:32;7.30;60.50
62991;DHT22;49084;48.204;16.202;2022-12-13T11:24:05;6.30;61.70
62991;DHT22;49084;48.204;16.202;2022-12-13T11:26:34;6.50;63.60
62991;DHT22;49084;48.204;16.202;2022-12-13T11:39:33;6.40;61.10
62991;DHT22;49084;48.204;16.202;2022-12-13T11:42:20;6.60;61.70
62991;DHT22;49084;48.204;16.202;2022-12-13T11:47:48;7.00;61.50
62991;DHT22;49084;48.204;16.202;2022-12-13T11:50:25;6.80;61.40
62991;DHT22;49084;48.204;16.202;2022-12-13T11:52:55;6.90;61.20
62991;DHT22;49084;48.204;16.202;2022-12-13T12:01:09;7.20;60.60
62991;DHT22;49084;48.204;16.202;2022-12-13T12:06:30;7.60;60.90
62991;DHT22;49084;48.204;16.202;2022-12-13T12:09:03;7.70;58.60
62991;DHT22;49084;48.204;16.202;2022-12-13T12:11:58;7.60;58.90
62991;DHT22;49084;48.204;16.202;2022-12-13T12:14:46;7.80;60.00
62991;DHT22;49084;48.204;16.202;2022-12-13T12:17:14;7.50;57.50
62991;DHT22;49084;48.204;16.202;2022-12-13T12:19:43;6.80;58.80
62991;DHT22;49084;48.204;16.202;2022-12-13T12:25:26;7.20;59.80
62991;DHT22;49084;48.204;16.202;2022-12-13T12:36:06;7.80;58.40
62991;DHT22;49084;48.204;16.202;2022-12-13T13:03:23;4.70;66.10
62991;DHT22;49084;48.204;16.202;2022-12-13T13:05:57;4.30;67.60
62991;DHT22;49084;48.204;16.202;2022-12-13T13:08:32;4.70;68.20
62991;DHT22;49084;48.204;16.202;2022-12-13T13:10:59;5.00;68.70
62991;DHT22;49084;48.204;16.202;2022-12-13T13:21:49;4.00;70.70
62991;DHT22;49084;48.204;16.202;2022-12-13T13:24:34;3.60;71.60
62991;DHT22;49084;48.204;16.202;2022-12-13T13:29:39;2.90;75.00
62991;DHT22;49084;48.204;16.202;2022-12-13T13:34:42;1.80;77.90
62991;DHT22;49084;48.204;16.202;2022-12-13T13:37:45;1.50;81.70
62991;DHT22;49084;48.204;16.202;2022-12-13T14:03:48;0.00;99.20
62991;DHT22;49084;48.204;16.202;2022-12-13T14:22:58;-0.40;99.90
62991;DHT22;49084;48.204;16.202;2022-12-13T14:25:39;-0.50;99.90
62991;DHT22;49084;48.204;16.202;2022-12-13T14:28:30;-0.60;99.90
62991;DHT22;49084;48.204;16.202;2022-12-13T14:30:57;-0.60;99.90
62991;DHT22;49084;48.204;16.202;2022-12-13T14:33:25;-0.20;99.90
62991;DHT22;49084;48.204;16.202;2022-12-13T14:35:58;0.70;99.90
62991;DHT22;49084;48.204;16.202;2022-12-13T14:38:28;-0.90;99.90
62991;DHT22;49084;48.204;16.202;2022-12-13T14:41:03;-0.20;99.90
62991;DHT22;49084;48.204;16.202;2022-12-13T14:43:32;-1.00;99.90
62991;DHT22;49084;48.204;16.202;2022-12-13T14:46:03;-1.10;99.90
62991;DHT22;49084;48.204;16.202;2022-12-13T14:48:34;-1.20;99.90
62991;DHT22;49084;48.204;16.202;2022-12-13T14:51:00;-1.10;99.90
62991;DHT22;49084;48.204;16.202;2022-12-13T14:53:29;-1.20;99.90
62991;DHT22;49084;48.204;16.202;2022-12-13T14:56:12;0.30;99.90
62991;DHT22;49084;48.204;16.202;2022-12-13T14:58:39;-1.30;99.90
62991;DHT22;49084;48.204;16.202;2022-12-13T15:01:27;-1.30;99.90
62991;DHT22;49084;48.204;16.202;2022-12-13T15:03:54;-1.40;99.90
62991;DHT22;49084;48.204;16.202;2022-12-13T15:06:39;-1.40;99.90
62991;DHT22;49084;48.204;16.202;2022-12-13T15:09:12;-0.70;99.90
62991;DHT22;49084;48.204;16.202;2022-12-13T15:11:42;-1.60;99.90
62991;DHT22;49084;48.204;16.202;2022-12-13T15:16:48;-1.70;99.90
62991;DHT22;49084;48.204;16.202;2022-12-13T15:19:26;-1.70;99.90
62991;DHT22;49084;48.204;16.202;2022-12-13T15:22:04;-1.80;99.90
62991;DHT22;49084;48.204;16.202;2022-12-13T15:24:34;0.50;99.90
62991;DHT22;49084;48.204;16.202;2022-12-13T15:27:00;-1.20;99.90
62991;DHT22;49084;48.204;16.202;2022-12-13T15:29:29;-0.30;99.90
62991;DHT22;49084;48.204;16.202;2022-12-13T15:31:55;-1.90;99.90
62991;DHT22;49084;48.204;16.202;2022-12-13T15:36:56;-0.80;99.90
62991;DHT22;49084;48.204;16.202;2022-12-13T15:39:23;-2.10;99.90
62991;DHT22;49084;48.204;16.202;2022-12-13T15:41:50;-2.20;99.90
62991;DHT22;49084;48.204;16.202;2022-12-13T15:44:43;-2.20;99.90
62991;DHT22;49084;48.204;16.202;2022-12-13T15:47:14;-1.90;99.90
62991;DHT22;49084;48.204;16.202;2022-12-13T15:50:02;-2.30;99.90
62991;DHT22;49084;48.204;16.202;2022-12-13T15:52:35;-2.30;99.90
62991;DHT22;49084;48.204;16.202;2022-12-13T15:57:47;-2.40;99.90
62991;DHT22;49084;48.204;16.202;2022-12-13T16:02:59;-1.90;99.90
62991;DHT22;49084;48.204;16.202;2022-12-13T16:05:31;-2.60;99.90
62991;DHT22;49084;48.204;16.202;2022-12-13T16:10:34;-2.70;99.90
62991;DHT22;49084;48.204;16.202;2022-12-13T16:15:31;-2.80;99.90
62991;DHT22;49084;48.204;16.202;2022-12-13T16:20:45;-2.60;99.90
62991;DHT22;49084;48.204;16.202;2022-12-13T16:23:11;-2.90;99.90
62991;DHT22;49084;48.204;16.202;2022-12-13T16:25:37;-3.00;99.90
62991;DHT22;49084;48.204;16.202;2022-12-13T16:28:03;-3.00;99.90
62991;DHT22;49084;48.204;16.202;2022-12-13T16:33:17;-3.10;99.90
62991;DHT22;49084;48.204;16.202;2022-12-13T16:35:43;-3.10;99.90
62991;DHT22;49084;48.204;16.202;2022-12-13T16:38:13;-3.10;99.90
62991;DHT22;49084;48.204;16.202;2022-12-13T16:40:39;-3.00;99.90
62991;DHT22;49084;48.204;16.202;2022-12-13T16:43:06;-1.50;99.90
62991;DHT22;49084;48.204;16.202;2022-12-13T16:45:47;-2.70;99.90
62991;DHT22;49084;48.204;16.202;2022-12-13T16:48:14;-2.50;99.90
62991;DHT22;49084;48.204;16.202;2022-12-13T16:50:42;-3.10;99.90
62991;DHT22;49084;48.204;16.202;2022-12-13T16:53:08;-3.30;99.90
62991;DHT22;49084;48.204;16.202;2022-12-13T16:55:35;-3.30;99.90
62991;DHT22;49084;48.204;16.202;2022-12-13T16:58:04;-3.40;99.90
62991;DHT22;49084;48.204;16.202;2022-12-13T17:00:31;-3.40;99.90
62991;DHT22;49084;48.204;16.202;2022-12-13T17:02:58;-3.40;99.90
62991;DHT22;49084;48.204;16.202;2022-12-13T17:05:26;-3.50;99.90
62991;DHT22;49084;48.204;16.202;2022-12-13T17:07:53;-3.50;99.90
62991;DHT22;49084;48.204;16.202;2022-12-13T17:10:19;-3.00;99.90
62991;DHT22;49084;48.204;16.202;2022-12-13T17:12:45;-3.70;99.90
62991;DHT22;49084;48.204;16.202;2022-12-13T17:15:12;-3.70;99.90
62991;DHT22;49084;48.204;16.202;2022-12-13T17:17:40;-3.80;99.90
62991;DHT22;49084;48.204;16.202;2022-12-13T17:20:08;-3.80;99.90
62991;DHT22;49084;48.204;16.202;2022-12-13T17:22:36;-3.80;99.90
62991;DHT22;49084;48.204;16.202;2022-12-13T17:25:03;-3.90;99.90
62991;DHT22;49084;48.204;16.202;2022-12-13T17:27:30;-3.90;99.90
62991;DHT22;49084;48.204;16.202;2022-12-13T17:29:56;-1.70;99.90
62991;DHT22;49084;48.204;16.202;2022-12-13T17:32:22;-4.00;99.90
62991;DHT22;49084;48.204;16.202;2022-12-13T17:34:50;-2.60;99.90
62991;DHT22;49084;48.204;16.202;2022-12-13T17:37:16;-4.00;99.90
62991;DHT22;49084;48.204;16.202;2022-12-13T17:39:43;-4.00;99.90
62991;DHT22;49084;48.204;16.202;2022-12-13T17:42:09;-4.10;99.90
62991;DHT22;49084;48.204;16.202;2022-12-13T17:44:35;-4.10;99.90
62991;DHT22;49084;48.204;16.202;2022-12-13T17:47:01;-4.10;99.90
62991;DHT22;49084;48.204;16.202;2022-12-13T17:49:27;-3.60;99.90
62991;DHT22;49084;48.204;16.202;2022-12-13T17:51:56;-2.00;99.90
62991;DHT22;49084;48.204;16.202;2022-12-13T17:57:28;-4.10;99.90
62991;DHT22;49084;48.204;16.202;2022-12-13T17:59:56;-4.10;99.90
62991;DHT22;49084;48.204;16.202;2022-12-13T18:02:21;-4.10;99.90
62991;DHT22;49084;48.204;16.202;2022-12-13T18:04:53;-4.10;99.90
62991;DHT22;49084;48.204;16.202;2022-12-13T18:07:36;-4.20;99.90
62991;DHT22;49084;48.204;16.202;2022-12-13T18:10:07;-4.20;99.90
62991;DHT22;49084;48.204;16.202;2022-12-13T18:12:46;-4.30;99.90
62991;DHT22;49084;48.204;16.202;2022-12-13T18:15:14;-4.30;99.90
62991;DHT22;49084;48.204;16.202;2022-12-13T18:17:40;-4.30;99.90
62991;DHT22;49084;48.204;16.202;2022-12-13T18:20:06;-4.30;99.90
62991;DHT22;49084;48.204;16.202;2022-12-13T18:22:32;-4.20;99.90